地図

経路データ

SID SEASON NUMBER BASIN SUBBASIN NAME ISO_TIME NATURE LAT LON WMO_WIND WMO_PRES WMO_AGENCY TRACK_TYPE DIST2LAND LANDFALL IFLAG USA_AGENCY USA_ATCF_ID USA_LAT USA_LON USA_RECORD USA_STATUS USA_WIND USA_PRES USA_SSHS USA_R34_NE USA_R34_SE USA_R34_SW USA_R34_NW USA_R50_NE USA_R50_SE USA_R50_SW USA_R50_NW USA_R64_NE USA_R64_SE USA_R64_SW USA_R64_NW USA_POCI USA_ROCI USA_RMW USA_EYE TOKYO_LAT TOKYO_LON TOKYO_GRADE TOKYO_WIND TOKYO_PRES TOKYO_R50_DIR TOKYO_R50_LONG TOKYO_R50_SHORT TOKYO_R30_DIR TOKYO_R30_LONG TOKYO_R30_SHORT TOKYO_LAND CMA_LAT CMA_LON CMA_CAT CMA_WIND CMA_PRES HKO_LAT HKO_LON HKO_CAT HKO_WIND HKO_PRES NEWDELHI_LAT NEWDELHI_LON NEWDELHI_GRADE NEWDELHI_WIND NEWDELHI_PRES NEWDELHI_CI NEWDELHI_DP NEWDELHI_POCI REUNION_LAT REUNION_LON REUNION_TYPE REUNION_WIND REUNION_PRES REUNION_TNUM REUNION_CI REUNION_RMW REUNION_R34_NE REUNION_R34_SE REUNION_R34_SW REUNION_R34_NW REUNION_R50_NE REUNION_R50_SE REUNION_R50_SW REUNION_R50_NW REUNION_R64_NE REUNION_R64_SE REUNION_R64_SW REUNION_R64_NW BOM_LAT BOM_LON BOM_TYPE BOM_WIND BOM_PRES BOM_TNUM BOM_CI BOM_RMW BOM_R34_NE BOM_R34_SE BOM_R34_SW BOM_R34_NW BOM_R50_NE BOM_R50_SE BOM_R50_SW BOM_R50_NW BOM_R64_NE BOM_R64_SE BOM_R64_SW BOM_R64_NW BOM_ROCI BOM_POCI BOM_EYE BOM_POS_METHOD BOM_PRES_METHOD NADI_LAT NADI_LON NADI_CAT NADI_WIND NADI_PRES WELLINGTON_LAT WELLINGTON_LON WELLINGTON_WIND WELLINGTON_PRES DS824_LAT DS824_LON DS824_STAGE DS824_WIND DS824_PRES TD9636_LAT TD9636_LON TD9636_STAGE TD9636_WIND TD9636_PRES TD9635_LAT TD9635_LON TD9635_WIND TD9635_PRES TD9635_ROCI NEUMANN_LAT NEUMANN_LON NEUMANN_CLASS NEUMANN_WIND NEUMANN_PRES MLC_LAT MLC_LON MLC_CLASS MLC_WIND MLC_PRES USA_GUST BOM_GUST BOM_GUST_PER REUNION_GUST REUNION_GUST_PER USA_SEAHGT USA_SEARAD_NE USA_SEARAD_SE USA_SEARAD_SW USA_SEARAD_NW STORM_SPEED STORM_DIR
1874021S19055 1874 3 SI MM NOT_NAMED 1874-01-21 06:00:00 NR -19.2000 55.4000 reunion main 201 190 _____O____O___ -1 -18.9000 55.7000 99 9.90000 -19.5000 55.1000 7 3 222
1874021S19055 1874 3 SI MM NOT_NAMED 1874-01-21 09:00:00 NR -19.3171 55.2864 main 190 179 _____P____P___ -1 -18.9872 55.5991 99 -19.6251 54.9753 7 3 223
1874021S19055 1874 3 SI MM NOT_NAMED 1874-01-21 12:00:00 NR -19.4292 55.1724 main 179 169 _____P____P___ -1 -19.0733 55.4970 99 -19.7502 54.8504 7 3 225
1874021S19055 1874 3 SI MM NOT_NAMED 1874-01-21 15:00:00 NR -19.5313 55.0578 main 169 159 _____P____P___ -1 -19.1570 55.3927 99 -19.8751 54.7253 7 3 229
1874021S19055 1874 3 SI MM NOT_NAMED 1874-01-21 18:00:00 NR -19.6186 54.9425 main 162 151 _____P____O___ -1 -19.2372 55.2850 99 -20.0000 54.6000 7 3 233
1874021S19055 1874 3 SI MM NOT_NAMED 1874-01-21 21:00:00 NR -19.6912 54.8267 main 154 148 _____P____P___ -1 -19.3128 55.1730 99 -20.1501 54.5003 7 3 235
1874021S19055 1874 3 SI MM NOT_NAMED 1874-01-22 00:00:00 NR -19.7701 54.7127 main 148 143 _____P____P___ -1 -19.3825 55.0555 99 -20.3001 54.4004 7 3 228
1874021S19055 1874 3 SI MM NOT_NAMED 1874-01-22 03:00:00 NR -19.8810 54.6029 main 143 133 _____P____P___ -1 -19.4453 54.9315 99 -20.4501 54.3003 7 3 216
1874021S19055 1874 3 SI MM NOT_NAMED 1874-01-22 06:00:00 NR -20.0500 54.5000 reunion main 139 122 _____O____O___ -1 -19.5000 54.8000 99 9.90000 -20.6000 54.2000 7 4 207
1874021S19055 1874 3 SI MM NOT_NAMED 1874-01-22 09:00:00 NR -20.2003 54.4316 main 129 122 _____P________ -1 -19.5475 54.6609 99 7 3 207
1874021S19055 1874 3 SI MM NOT_NAMED 1874-01-22 12:00:00 NR -20.2866 54.3713 main 122 122 _____P________ -1 -19.5974 54.5187 99 7 1 273
1874021S19055 1874 3 SI MM NOT_NAMED 1874-01-22 15:00:00 NR -20.1944 54.3157 main 137 137 _____P________ -1 -19.6612 54.3788 99 7 6 348
1874021S19055 1874 3 SI MM NOT_NAMED 1874-01-22 18:00:00 NR -19.7508 54.2465 main 176 175 _____P________ -1 -19.7508 54.2465 99 4 331
1874021S19055 1874 3 SI MM NOT_NAMED 1874-01-22 21:00:00 NR -19.8777 54.1271 main 175 167 _____P________ -1 -19.8777 54.1271 99 4 214
1874021S19055 1874 3 SI MM NOT_NAMED 1874-01-23 00:00:00 NR -20.0537 54.0260 main 167 153 _____P________ -1 -20.0537 54.0260 99 4 202
1874021S19055 1874 3 SI MM NOT_NAMED 1874-01-23 03:00:00 NR -20.2905 53.9485 main 162 146 _____P________ -1 -20.2905 53.9485 99 6 192
1874021S19055 1874 3 SI MM NOT_NAMED 1874-01-23 06:00:00 NR -20.6000 53.9000 reunion main 146 135 _____O________ -1 -20.6000 53.9000 99 9.90000 7 186
1874021S19055 1874 3 SI MM NOT_NAMED 1874-01-23 09:00:00 NR -21.0235 53.8678 main 135 134 _____P________ -1 -21.0235 53.8678 99 9 183
1874021S19055 1874 3 SI MM NOT_NAMED 1874-01-23 12:00:00 NR -21.5224 53.8615 main 141 141 _____P________ -1 -21.5224 53.8615 99 11 179
1874021S19055 1874 3 SI MM NOT_NAMED 1874-01-23 15:00:00 NR -22.0806 53.8815 main 170 170 _____P________ -1 -22.0806 53.8815 99 12 177
1874021S19055 1874 3 SI MM NOT_NAMED 1874-01-23 18:00:00 NR -22.6821 53.9286 main 212 212 _____P________ -1 -22.6821 53.9286 99 12 175
1874021S19055 1874 3 SI MM NOT_NAMED 1874-01-23 21:00:00 NR -23.3108 54.0032 main 260 260 _____P________ -1 -23.3108 54.0032 99 13 173
1874021S19055 1874 3 SI MM NOT_NAMED 1874-01-24 00:00:00 NR -23.9507 54.1062 main 325 325 _____P________ -1 -23.9507 54.1062 99 13 171
1874021S19055 1874 3 SI MM NOT_NAMED 1874-01-24 03:00:00 NR -24.5857 54.2382 main 385 385 _____P________ -1 -24.5857 54.2382 99 13 168
1874021S19055 1874 3 SI MM NOT_NAMED 1874-01-24 06:00:00 NR -25.2000 54.4000 reunion main 442 442 _____O________ -1 -25.2000 54.4000 99 9.90000 13 164
1874021S19055 1874 3 SI MM NOT_NAMED 1874-01-24 09:00:00 NR -25.7897 54.6122 main 502 502 _____P________ -1 -25.7897 54.6122 99 13 160
1874021S19055 1874 3 SI MM NOT_NAMED 1874-01-24 12:00:00 NR -26.3744 54.8623 main 563 563 _____P________ -1 -26.3744 54.8623 99 13 158
1874021S19055 1874 3 SI MM NOT_NAMED 1874-01-24 15:00:00 NR -26.9437 55.1388 main 616 616 _____P________ -1 -26.9437 55.1388 99 12 156
1874021S19055 1874 3 SI MM NOT_NAMED 1874-01-24 18:00:00 NR -27.4872 55.4302 main 681 681 _____P________ -1 -27.4872 55.4302 99 12 154
1874021S19055 1874 3 SI MM NOT_NAMED 1874-01-24 21:00:00 NR -27.9948 55.7245 main 737 737 _____P________ -1 -27.9948 55.7245 99 11 152
1874021S19055 1874 3 SI MM NOT_NAMED 1874-01-25 00:00:00 NR -28.4561 56.0095 main 794 794 _____P________ -1 -28.4561 56.0095 99 10 151
1874021S19055 1874 3 SI MM NOT_NAMED 1874-01-25 03:00:00 NR -28.8612 56.2722 main 840 840 _____P________ -1 -28.8612 56.2722 99 9 150
1874021S19055 1874 3 SI MM NOT_NAMED 1874-01-25 06:00:00 NR -29.2000 56.5000 reunion main 876 876 _____O________ -1 -29.2000 56.5000 99 9.90000 7 149
1874021S19055 1874 3 SI MM NOT_NAMED 1874-01-25 09:00:00 NR -29.4659 56.6827 main 911 911 _____P________ -1 -29.4659 56.6827 99 5 149
1874021S19055 1874 3 SI MM NOT_NAMED 1874-01-25 12:00:00 NR -29.6652 56.8228 main 934 934 _____P________ -1 -29.6652 56.8228 99 4 148
1874021S19055 1874 3 SI MM NOT_NAMED 1874-01-25 15:00:00 NR -29.8077 56.9260 main 947 947 _____P________ -1 -29.8077 56.9260 99 3 147
1874021S19055 1874 3 SI MM NOT_NAMED 1874-01-25 18:00:00 NR -29.9029 56.9982 main 959 959 _____P________ -1 -29.9029 56.9982 99 2 145
1874021S19055 1874 3 SI MM NOT_NAMED 1874-01-25 21:00:00 NR -29.9602 57.0455 main 970 970 _____P________ -1 -29.9602 57.0455 99 1 140
1874021S19055 1874 3 SI MM NOT_NAMED 1874-01-26 00:00:00 NR -29.9892 57.0741 main 972 972 _____P________ -1 -29.9892 57.0741 99 1 134
1874021S19055 1874 3 SI MM NOT_NAMED 1874-01-26 03:00:00 NR -29.9993 57.0902 main 972 972 _____P________ -1 -29.9993 57.0902 99 0 0
1874021S19055 1874 3 SI MM NOT_NAMED 1874-01-26 06:00:00 NR -30.0000 57.1000 reunion main 972 _____O________ -1 -30.0000 57.1000 99 9.90000 0 0

IBTrACS Databaseについて

本データベースは、米国NOAAが公開する1842年以降の世界の熱帯低気圧のベストトラックデータアーカイブInternational Best Track Archive for Climate Stewardship (IBTrACS)を、ウェブで閲覧しやすい形式に変換したものです。

最終更新日:2021-10-08